sensor_id;sensor_type;location;lat;lon;timestamp;P1;durP1;ratioP1;P2;durP2;ratioP2
8819;SDS011;4446;50.876;4.736;2023-02-28T00:01:27;9.67;;;6.67;;
8819;SDS011;4446;50.876;4.736;2023-02-28T00:03:54;10.83;;;7.07;;
8819;SDS011;4446;50.876;4.736;2023-02-28T00:06:23;9.45;;;6.50;;
8819;SDS011;4446;50.876;4.736;2023-02-28T00:08:50;9.38;;;6.95;;
8819;SDS011;4446;50.876;4.736;2023-02-28T00:11:17;10.43;;;7.40;;
8819;SDS011;4446;50.876;4.736;2023-02-28T00:13:44;7.67;;;6.50;;
8819;SDS011;4446;50.876;4.736;2023-02-28T00:16:13;9.80;;;7.18;;
8819;SDS011;4446;50.876;4.736;2023-02-28T00:18:41;12.00;;;7.70;;
8819;SDS011;4446;50.876;4.736;2023-02-28T00:21:08;10.88;;;6.85;;
8819;SDS011;4446;50.876;4.736;2023-02-28T00:23:37;10.07;;;6.77;;
8819;SDS011;4446;50.876;4.736;2023-02-28T00:26:03;11.03;;;7.37;;
8819;SDS011;4446;50.876;4.736;2023-02-28T00:28:30;9.53;;;6.97;;
8819;SDS011;4446;50.876;4.736;2023-02-28T00:30:57;11.95;;;7.20;;
8819;SDS011;4446;50.876;4.736;2023-02-28T00:33:25;8.75;;;6.88;;
8819;SDS011;4446;50.876;4.736;2023-02-28T00:35:52;9.65;;;7.25;;
8819;SDS011;4446;50.876;4.736;2023-02-28T00:38:28;10.17;;;7.07;;
8819;SDS011;4446;50.876;4.736;2023-02-28T00:40:56;17.10;;;7.88;;
8819;SDS011;4446;50.876;4.736;2023-02-28T00:43:29;9.70;;;6.97;;
8819;SDS011;4446;50.876;4.736;2023-02-28T00:45:57;9.43;;;6.73;;
8819;SDS011;4446;50.876;4.736;2023-02-28T00:48:23;9.35;;;6.95;;
8819;SDS011;4446;50.876;4.736;2023-02-28T00:50:50;11.77;;;7.35;;
8819;SDS011;4446;50.876;4.736;2023-02-28T00:53:17;9.32;;;6.97;;
8819;SDS011;4446;50.876;4.736;2023-02-28T00:55:44;11.32;;;7.53;;
8819;SDS011;4446;50.876;4.736;2023-02-28T00:58:12;11.82;;;7.53;;
8819;SDS011;4446;50.876;4.736;2023-02-28T01:00:39;9.98;;;7.65;;
8819;SDS011;4446;50.876;4.736;2023-02-28T01:03:06;10.83;;;7.83;;
8819;SDS011;4446;50.876;4.736;2023-02-28T01:05:33;12.27;;;7.65;;
8819;SDS011;4446;50.876;4.736;2023-02-28T01:08:00;11.50;;;7.68;;
8819;SDS011;4446;50.876;4.736;2023-02-28T01:10:27;13.60;;;7.60;;
8819;SDS011;4446;50.876;4.736;2023-02-28T01:12:56;9.90;;;7.25;;
8819;SDS011;4446;50.876;4.736;2023-02-28T01:15:24;10.73;;;7.80;;
8819;SDS011;4446;50.876;4.736;2023-02-28T01:17:51;12.68;;;7.75;;
8819;SDS011;4446;50.876;4.736;2023-02-28T01:20:18;13.25;;;8.68;;
8819;SDS011;4446;50.876;4.736;2023-02-28T01:22:45;11.75;;;8.10;;
8819;SDS011;4446;50.876;4.736;2023-02-28T01:25:12;13.85;;;8.23;;
8819;SDS011;4446;50.876;4.736;2023-02-28T01:27:39;14.43;;;8.63;;
8819;SDS011;4446;50.876;4.736;2023-02-28T01:30:07;13.77;;;8.93;;
8819;SDS011;4446;50.876;4.736;2023-02-28T01:32:36;10.87;;;7.77;;
8819;SDS011;4446;50.876;4.736;2023-02-28T01:35:03;12.32;;;7.75;;
8819;SDS011;4446;50.876;4.736;2023-02-28T01:37:30;9.10;;;7.03;;
8819;SDS011;4446;50.876;4.736;2023-02-28T01:39:57;11.70;;;7.57;;
8819;SDS011;4446;50.876;4.736;2023-02-28T01:42:24;14.50;;;7.63;;
8819;SDS011;4446;50.876;4.736;2023-02-28T01:44:55;11.03;;;7.50;;
8819;SDS011;4446;50.876;4.736;2023-02-28T01:47:27;10.20;;;7.03;;
8819;SDS011;4446;50.876;4.736;2023-02-28T01:49:59;10.10;;;7.35;;
8819;SDS011;4446;50.876;4.736;2023-02-28T01:52:29;13.10;;;7.43;;
8819;SDS011;4446;50.876;4.736;2023-02-28T01:54:58;9.73;;;6.95;;
8819;SDS011;4446;50.876;4.736;2023-02-28T01:57:28;10.60;;;7.17;;
8819;SDS011;4446;50.876;4.736;2023-02-28T02:00:03;10.25;;;7.07;;
8819;SDS011;4446;50.876;4.736;2023-02-28T02:02:34;10.65;;;7.50;;
8819;SDS011;4446;50.876;4.736;2023-02-28T02:05:06;9.20;;;7.20;;
8819;SDS011;4446;50.876;4.736;2023-02-28T02:07:37;8.95;;;7.18;;
8819;SDS011;4446;50.876;4.736;2023-02-28T02:10:06;12.73;;;7.60;;
8819;SDS011;4446;50.876;4.736;2023-02-28T02:12:56;12.87;;;7.60;;
8819;SDS011;4446;50.876;4.736;2023-02-28T02:15:35;11.38;;;7.28;;
8819;SDS011;4446;50.876;4.736;2023-02-28T02:18:08;12.07;;;7.65;;
8819;SDS011;4446;50.876;4.736;2023-02-28T02:20:51;10.98;;;7.20;;
8819;SDS011;4446;50.876;4.736;2023-02-28T02:23:46;10.77;;;7.07;;
8819;SDS011;4446;50.876;4.736;2023-02-28T02:26:35;10.97;;;7.30;;
8819;SDS011;4446;50.876;4.736;2023-02-28T02:29:18;12.40;;;7.68;;
8819;SDS011;4446;50.876;4.736;2023-02-28T02:32:07;12.57;;;7.37;;
8819;SDS011;4446;50.876;4.736;2023-02-28T02:34:51;8.27;;;7.07;;
8819;SDS011;4446;50.876;4.736;2023-02-28T02:37:27;12.27;;;7.40;;
8819;SDS011;4446;50.876;4.736;2023-02-28T02:40:02;12.18;;;7.72;;
8819;SDS011;4446;50.876;4.736;2023-02-28T02:42:36;11.53;;;7.43;;
8819;SDS011;4446;50.876;4.736;2023-02-28T02:45:09;11.05;;;7.78;;
8819;SDS011;4446;50.876;4.736;2023-02-28T02:47:41;10.27;;;6.70;;
8819;SDS011;4446;50.876;4.736;2023-02-28T02:50:12;10.53;;;7.77;;
8819;SDS011;4446;50.876;4.736;2023-02-28T02:52:44;11.27;;;7.40;;
8819;SDS011;4446;50.876;4.736;2023-02-28T02:55:15;9.55;;;7.00;;
8819;SDS011;4446;50.876;4.736;2023-02-28T02:57:45;9.23;;;6.85;;
8819;SDS011;4446;50.876;4.736;2023-02-28T03:00:16;11.23;;;7.47;;
8819;SDS011;4446;50.876;4.736;2023-02-28T03:02:46;10.63;;;7.53;;
8819;SDS011;4446;50.876;4.736;2023-02-28T03:05:17;13.20;;;7.63;;
8819;SDS011;4446;50.876;4.736;2023-02-28T03:07:47;11.43;;;7.50;;
8819;SDS011;4446;50.876;4.736;2023-02-28T03:16:34;10.20;;;7.50;;
8819;SDS011;4446;50.876;4.736;2023-02-28T03:19:10;13.20;;;7.47;;
8819;SDS011;4446;50.876;4.736;2023-02-28T03:21:54;9.80;;;6.93;;
8819;SDS011;4446;50.876;4.736;2023-02-28T03:24:30;13.87;;;7.97;;
8819;SDS011;4446;50.876;4.736;2023-02-28T03:27:04;12.80;;;8.00;;
8819;SDS011;4446;50.876;4.736;2023-02-28T03:29:35;11.47;;;7.73;;
8819;SDS011;4446;50.876;4.736;2023-02-28T03:32:08;11.17;;;7.90;;
8819;SDS011;4446;50.876;4.736;2023-02-28T03:34:43;10.73;;;7.67;;
8819;SDS011;4446;50.876;4.736;2023-02-28T03:37:17;10.90;;;8.13;;
8819;SDS011;4446;50.876;4.736;2023-02-28T03:39:49;10.87;;;7.67;;
8819;SDS011;4446;50.876;4.736;2023-02-28T03:42:22;12.40;;;8.23;;
8819;SDS011;4446;50.876;4.736;2023-02-28T03:44:53;12.77;;;8.43;;
8819;SDS011;4446;50.876;4.736;2023-02-28T03:47:24;11.03;;;8.40;;
8819;SDS011;4446;50.876;4.736;2023-02-28T03:49:56;15.03;;;8.83;;
8819;SDS011;4446;50.876;4.736;2023-02-28T03:52:30;14.90;;;8.17;;
8819;SDS011;4446;50.876;4.736;2023-02-28T03:55:00;13.50;;;9.00;;
8819;SDS011;4446;50.876;4.736;2023-02-28T03:57:33;15.40;;;8.93;;
8819;SDS011;4446;50.876;4.736;2023-02-28T04:00:04;13.27;;;9.37;;
8819;SDS011;4446;50.876;4.736;2023-02-28T04:02:34;12.27;;;8.70;;
8819;SDS011;4446;50.876;4.736;2023-02-28T04:05:01;12.37;;;8.53;;
8819;SDS011;4446;50.876;4.736;2023-02-28T04:07:30;14.53;;;9.23;;
8819;SDS011;4446;50.876;4.736;2023-02-28T04:09:57;12.90;;;8.90;;
8819;SDS011;4446;50.876;4.736;2023-02-28T04:12:25;13.37;;;8.87;;
8819;SDS011;4446;50.876;4.736;2023-02-28T04:14:52;13.27;;;8.82;;
8819;SDS011;4446;50.876;4.736;2023-02-28T04:17:19;14.83;;;9.93;;
8819;SDS011;4446;50.876;4.736;2023-02-28T04:19:46;15.85;;;9.77;;
8819;SDS011;4446;50.876;4.736;2023-02-28T04:22:13;15.20;;;9.43;;
8819;SDS011;4446;50.876;4.736;2023-02-28T04:24:41;18.23;;;10.57;;
8819;SDS011;4446;50.876;4.736;2023-02-28T04:27:08;17.13;;;10.03;;
8819;SDS011;4446;50.876;4.736;2023-02-28T04:29:35;16.48;;;10.35;;
8819;SDS011;4446;50.876;4.736;2023-02-28T04:32:02;17.70;;;10.90;;
8819;SDS011;4446;50.876;4.736;2023-02-28T04:34:30;16.37;;;11.07;;
8819;SDS011;4446;50.876;4.736;2023-02-28T04:36:58;17.60;;;10.63;;
8819;SDS011;4446;50.876;4.736;2023-02-28T04:39:25;14.87;;;11.00;;
8819;SDS011;4446;50.876;4.736;2023-02-28T04:41:53;14.37;;;10.60;;
8819;SDS011;4446;50.876;4.736;2023-02-28T04:44:20;15.93;;;10.87;;
8819;SDS011;4446;50.876;4.736;2023-02-28T04:46:48;19.20;;;11.25;;
8819;SDS011;4446;50.876;4.736;2023-02-28T04:49:15;19.80;;;11.20;;
8819;SDS011;4446;50.876;4.736;2023-02-28T04:51:42;20.63;;;11.23;;
8819;SDS011;4446;50.876;4.736;2023-02-28T04:54:09;17.07;;;11.40;;
8819;SDS011;4446;50.876;4.736;2023-02-28T04:56:36;18.07;;;12.03;;
8819;SDS011;4446;50.876;4.736;2023-02-28T04:59:04;17.70;;;11.90;;
8819;SDS011;4446;50.876;4.736;2023-02-28T05:01:32;18.50;;;12.00;;
8819;SDS011;4446;50.876;4.736;2023-02-28T05:04:01;21.37;;;11.73;;
8819;SDS011;4446;50.876;4.736;2023-02-28T05:06:31;17.83;;;11.70;;
8819;SDS011;4446;50.876;4.736;2023-02-28T05:08:59;16.03;;;11.57;;
8819;SDS011;4446;50.876;4.736;2023-02-28T05:11:27;18.05;;;11.98;;
8819;SDS011;4446;50.876;4.736;2023-02-28T05:13:59;18.27;;;12.43;;
8819;SDS011;4446;50.876;4.736;2023-02-28T05:16:28;18.83;;;12.83;;
8819;SDS011;4446;50.876;4.736;2023-02-28T05:18:55;18.17;;;11.97;;
8819;SDS011;4446;50.876;4.736;2023-02-28T05:21:24;19.92;;;13.10;;
8819;SDS011;4446;50.876;4.736;2023-02-28T05:23:52;21.20;;;13.48;;
8819;SDS011;4446;50.876;4.736;2023-02-28T05:26:20;22.77;;;13.67;;
8819;SDS011;4446;50.876;4.736;2023-02-28T05:28:47;17.93;;;12.83;;
8819;SDS011;4446;50.876;4.736;2023-02-28T05:31:14;18.17;;;13.50;;
8819;SDS011;4446;50.876;4.736;2023-02-28T05:33:42;20.63;;;13.60;;
8819;SDS011;4446;50.876;4.736;2023-02-28T05:36:09;18.80;;;13.38;;
8819;SDS011;4446;50.876;4.736;2023-02-28T05:38:36;22.77;;;14.00;;
8819;SDS011;4446;50.876;4.736;2023-02-28T05:41:07;19.45;;;12.70;;
8819;SDS011;4446;50.876;4.736;2023-02-28T05:43:34;20.75;;;12.70;;
8819;SDS011;4446;50.876;4.736;2023-02-28T05:46:02;21.33;;;12.57;;
8819;SDS011;4446;50.876;4.736;2023-02-28T05:48:30;19.25;;;12.80;;
8819;SDS011;4446;50.876;4.736;2023-02-28T05:50:59;17.85;;;12.55;;
8819;SDS011;4446;50.876;4.736;2023-02-28T05:53:26;19.25;;;12.73;;
8819;SDS011;4446;50.876;4.736;2023-02-28T05:55:53;22.42;;;13.25;;
8819;SDS011;4446;50.876;4.736;2023-02-28T05:58:20;20.40;;;12.63;;
8819;SDS011;4446;50.876;4.736;2023-02-28T06:00:47;21.67;;;13.17;;
8819;SDS011;4446;50.876;4.736;2023-02-28T06:03:14;18.60;;;12.38;;
8819;SDS011;4446;50.876;4.736;2023-02-28T06:05:41;21.17;;;12.18;;
8819;SDS011;4446;50.876;4.736;2023-02-28T06:08:09;18.33;;;12.40;;
8819;SDS011;4446;50.876;4.736;2023-02-28T06:10:36;19.97;;;12.63;;
8819;SDS011;4446;50.876;4.736;2023-02-28T06:13:03;19.10;;;12.20;;
8819;SDS011;4446;50.876;4.736;2023-02-28T06:15:32;20.08;;;13.10;;
8819;SDS011;4446;50.876;4.736;2023-02-28T06:17:59;19.87;;;12.77;;
8819;SDS011;4446;50.876;4.736;2023-02-28T06:20:27;18.60;;;12.20;;
8819;SDS011;4446;50.876;4.736;2023-02-28T06:22:54;18.30;;;12.60;;
8819;SDS011;4446;50.876;4.736;2023-02-28T06:25:25;19.60;;;12.37;;
8819;SDS011;4446;50.876;4.736;2023-02-28T06:27:52;18.50;;;12.43;;
8819;SDS011;4446;50.876;4.736;2023-02-28T06:30:19;20.65;;;13.27;;
8819;SDS011;4446;50.876;4.736;2023-02-28T06:32:48;16.33;;;12.03;;
8819;SDS011;4446;50.876;4.736;2023-02-28T06:35:15;17.10;;;11.98;;
8819;SDS011;4446;50.876;4.736;2023-02-28T06:37:42;19.77;;;12.73;;
8819;SDS011;4446;50.876;4.736;2023-02-28T06:40:10;20.37;;;12.37;;
8819;SDS011;4446;50.876;4.736;2023-02-28T06:42:39;18.00;;;13.13;;
8819;SDS011;4446;50.876;4.736;2023-02-28T06:45:07;18.35;;;12.57;;
8819;SDS011;4446;50.876;4.736;2023-02-28T06:47:35;19.40;;;12.52;;
8819;SDS011;4446;50.876;4.736;2023-02-28T06:50:02;20.33;;;13.65;;
8819;SDS011;4446;50.876;4.736;2023-02-28T06:52:31;18.15;;;12.98;;
8819;SDS011;4446;50.876;4.736;2023-02-28T06:55:01;16.95;;;12.82;;
8819;SDS011;4446;50.876;4.736;2023-02-28T06:57:28;18.85;;;13.20;;
8819;SDS011;4446;50.876;4.736;2023-02-28T06:59:58;19.98;;;13.30;;
8819;SDS011;4446;50.876;4.736;2023-02-28T07:02:26;17.93;;;12.33;;
8819;SDS011;4446;50.876;4.736;2023-02-28T07:04:53;20.40;;;12.82;;
8819;SDS011;4446;50.876;4.736;2023-02-28T07:07:20;19.37;;;12.23;;
8819;SDS011;4446;50.876;4.736;2023-02-28T07:09:47;17.53;;;12.10;;
8819;SDS011;4446;50.876;4.736;2023-02-28T07:12:14;19.15;;;12.70;;
8819;SDS011;4446;50.876;4.736;2023-02-28T07:14:41;19.33;;;12.57;;
8819;SDS011;4446;50.876;4.736;2023-02-28T07:17:09;19.50;;;13.17;;
8819;SDS011;4446;50.876;4.736;2023-02-28T07:19:37;18.13;;;12.88;;
8819;SDS011;4446;50.876;4.736;2023-02-28T07:22:04;20.73;;;13.53;;
8819;SDS011;4446;50.876;4.736;2023-02-28T07:24:31;19.90;;;13.07;;
8819;SDS011;4446;50.876;4.736;2023-02-28T07:26:58;19.20;;;13.15;;
8819;SDS011;4446;50.876;4.736;2023-02-28T07:29:26;18.80;;;12.38;;
8819;SDS011;4446;50.876;4.736;2023-02-28T07:31:53;18.30;;;13.70;;
8819;SDS011;4446;50.876;4.736;2023-02-28T07:34:21;20.83;;;13.53;;
8819;SDS011;4446;50.876;4.736;2023-02-28T07:36:48;21.20;;;13.90;;
8819;SDS011;4446;50.876;4.736;2023-02-28T07:39:18;25.50;;;13.90;;
8819;SDS011;4446;50.876;4.736;2023-02-28T07:41:45;20.40;;;14.03;;
8819;SDS011;4446;50.876;4.736;2023-02-28T07:44:12;21.60;;;14.23;;
8819;SDS011;4446;50.876;4.736;2023-02-28T07:46:39;21.37;;;13.93;;
8819;SDS011;4446;50.876;4.736;2023-02-28T07:49:06;18.90;;;13.73;;
8819;SDS011;4446;50.876;4.736;2023-02-28T07:51:35;20.17;;;13.30;;
8819;SDS011;4446;50.876;4.736;2023-02-28T07:54:02;19.17;;;13.48;;
8819;SDS011;4446;50.876;4.736;2023-02-28T07:56:29;20.05;;;13.32;;
8819;SDS011;4446;50.876;4.736;2023-02-28T07:58:56;20.17;;;13.33;;
8819;SDS011;4446;50.876;4.736;2023-02-28T08:01:23;19.55;;;13.40;;
8819;SDS011;4446;50.876;4.736;2023-02-28T08:03:50;21.58;;;14.18;;
8819;SDS011;4446;50.876;4.736;2023-02-28T08:06:17;19.67;;;12.95;;
8819;SDS011;4446;50.876;4.736;2023-02-28T08:08:47;18.02;;;12.85;;
8819;SDS011;4446;50.876;4.736;2023-02-28T08:11:15;20.40;;;12.82;;
8819;SDS011;4446;50.876;4.736;2023-02-28T08:13:43;18.77;;;13.45;;
8819;SDS011;4446;50.876;4.736;2023-02-28T08:16:11;15.90;;;11.85;;
8819;SDS011;4446;50.876;4.736;2023-02-28T08:18:42;14.85;;;11.18;;
8819;SDS011;4446;50.876;4.736;2023-02-28T08:21:09;16.92;;;10.80;;
8819;SDS011;4446;50.876;4.736;2023-02-28T08:23:37;17.23;;;11.25;;
8819;SDS011;4446;50.876;4.736;2023-02-28T08:26:05;15.32;;;9.93;;
8819;SDS011;4446;50.876;4.736;2023-02-28T08:28:32;17.17;;;9.68;;
8819;SDS011;4446;50.876;4.736;2023-02-28T08:30:59;12.90;;;9.20;;
8819;SDS011;4446;50.876;4.736;2023-02-28T08:33:27;11.50;;;8.65;;
8819;SDS011;4446;50.876;4.736;2023-02-28T08:35:54;11.43;;;8.45;;
8819;SDS011;4446;50.876;4.736;2023-02-28T08:38:21;10.70;;;7.85;;
8819;SDS011;4446;50.876;4.736;2023-02-28T08:40:49;13.45;;;8.32;;
8819;SDS011;4446;50.876;4.736;2023-02-28T08:43:17;11.05;;;7.60;;
8819;SDS011;4446;50.876;4.736;2023-02-28T08:45:44;9.50;;;7.00;;
8819;SDS011;4446;50.876;4.736;2023-02-28T08:48:11;12.55;;;7.07;;
8819;SDS011;4446;50.876;4.736;2023-02-28T08:50:38;8.00;;;6.85;;
8819;SDS011;4446;50.876;4.736;2023-02-28T08:53:05;8.35;;;6.75;;
8819;SDS011;4446;50.876;4.736;2023-02-28T08:55:32;9.43;;;6.80;;
8819;SDS011;4446;50.876;4.736;2023-02-28T08:57:59;8.32;;;6.07;;
8819;SDS011;4446;50.876;4.736;2023-02-28T09:00:27;11.27;;;6.38;;
8819;SDS011;4446;50.876;4.736;2023-02-28T09:02:54;7.57;;;5.60;;
8819;SDS011;4446;50.876;4.736;2023-02-28T09:05:21;6.55;;;5.65;;
8819;SDS011;4446;50.876;4.736;2023-02-28T09:07:49;7.40;;;5.45;;
8819;SDS011;4446;50.876;4.736;2023-02-28T09:10:16;10.13;;;5.80;;
8819;SDS011;4446;50.876;4.736;2023-02-28T09:12:43;6.55;;;4.95;;
8819;SDS011;4446;50.876;4.736;2023-02-28T09:15:11;7.63;;;4.93;;
8819;SDS011;4446;50.876;4.736;2023-02-28T09:17:40;7.35;;;5.63;;
8819;SDS011;4446;50.876;4.736;2023-02-28T09:20:07;6.38;;;4.70;;
8819;SDS011;4446;50.876;4.736;2023-02-28T09:22:35;6.60;;;4.78;;
8819;SDS011;4446;50.876;4.736;2023-02-28T09:25:02;6.30;;;4.50;;
8819;SDS011;4446;50.876;4.736;2023-02-28T09:27:29;6.32;;;4.47;;
8819;SDS011;4446;50.876;4.736;2023-02-28T09:29:56;5.78;;;4.47;;
8819;SDS011;4446;50.876;4.736;2023-02-28T09:32:23;6.57;;;4.32;;
8819;SDS011;4446;50.876;4.736;2023-02-28T09:34:52;6.18;;;4.15;;
8819;SDS011;4446;50.876;4.736;2023-02-28T09:37:19;6.07;;;3.80;;
8819;SDS011;4446;50.876;4.736;2023-02-28T09:39:45;8.88;;;4.13;;
8819;SDS011;4446;50.876;4.736;2023-02-28T09:42:17;5.53;;;3.92;;
8819;SDS011;4446;50.876;4.736;2023-02-28T09:44:52;6.50;;;4.00;;
8819;SDS011;4446;50.876;4.736;2023-02-28T09:47:25;5.95;;;4.10;;
8819;SDS011;4446;50.876;4.736;2023-02-28T09:49:57;6.30;;;4.28;;
8819;SDS011;4446;50.876;4.736;2023-02-28T09:52:29;5.15;;;3.85;;
8819;SDS011;4446;50.876;4.736;2023-02-28T09:54:59;4.40;;;3.30;;
8819;SDS011;4446;50.876;4.736;2023-02-28T09:57:38;4.20;;;3.50;;
8819;SDS011;4446;50.876;4.736;2023-02-28T10:00:10;7.13;;;3.67;;
8819;SDS011;4446;50.876;4.736;2023-02-28T10:02:47;3.72;;;3.28;;
8819;SDS011;4446;50.876;4.736;2023-02-28T10:05:25;3.92;;;3.20;;
8819;SDS011;4446;50.876;4.736;2023-02-28T10:07:58;3.75;;;3.28;;
8819;SDS011;4446;50.876;4.736;2023-02-28T10:10:32;4.22;;;3.05;;
8819;SDS011;4446;50.876;4.736;2023-02-28T10:13:04;4.35;;;2.95;;
8819;SDS011;4446;50.876;4.736;2023-02-28T10:15:37;4.15;;;2.75;;
8819;SDS011;4446;50.876;4.736;2023-02-28T10:18:04;5.32;;;3.30;;
8819;SDS011;4446;50.876;4.736;2023-02-28T10:20:38;4.57;;;3.15;;
8819;SDS011;4446;50.876;4.736;2023-02-28T10:23:09;5.97;;;3.55;;
8819;SDS011;4446;50.876;4.736;2023-02-28T10:25:40;4.03;;;3.25;;
8819;SDS011;4446;50.876;4.736;2023-02-28T10:28:13;4.05;;;3.33;;
8819;SDS011;4446;50.876;4.736;2023-02-28T10:30:44;3.38;;;2.75;;
8819;SDS011;4446;50.876;4.736;2023-02-28T10:33:21;6.22;;;3.10;;
8819;SDS011;4446;50.876;4.736;2023-02-28T10:35:52;4.22;;;2.70;;
8819;SDS011;4446;50.876;4.736;2023-02-28T10:38:20;3.63;;;2.95;;
8819;SDS011;4446;50.876;4.736;2023-02-28T10:40:50;4.97;;;3.00;;
8819;SDS011;4446;50.876;4.736;2023-02-28T10:43:21;3.65;;;2.53;;
8819;SDS011;4446;50.876;4.736;2023-02-28T10:45:55;2.78;;;2.47;;
8819;SDS011;4446;50.876;4.736;2023-02-28T10:48:34;2.97;;;2.53;;
8819;SDS011;4446;50.876;4.736;2023-02-28T10:51:06;5.18;;;2.60;;
8819;SDS011;4446;50.876;4.736;2023-02-28T10:53:39;3.78;;;2.90;;
8819;SDS011;4446;50.876;4.736;2023-02-28T10:56:16;3.22;;;2.92;;
8819;SDS011;4446;50.876;4.736;2023-02-28T10:58:48;3.00;;;2.70;;
8819;SDS011;4446;50.876;4.736;2023-02-28T11:01:18;3.95;;;2.92;;
8819;SDS011;4446;50.876;4.736;2023-02-28T11:03:47;3.72;;;2.67;;
8819;SDS011;4446;50.876;4.736;2023-02-28T11:06:19;4.65;;;2.80;;
8819;SDS011;4446;50.876;4.736;2023-02-28T11:08:49;3.33;;;2.80;;
8819;SDS011;4446;50.876;4.736;2023-02-28T11:11:18;3.65;;;2.78;;
8819;SDS011;4446;50.876;4.736;2023-02-28T11:13:50;2.88;;;2.58;;
8819;SDS011;4446;50.876;4.736;2023-02-28T11:16:19;3.50;;;2.80;;
8819;SDS011;4446;50.876;4.736;2023-02-28T11:18:48;2.90;;;2.60;;
8819;SDS011;4446;50.876;4.736;2023-02-28T11:21:23;3.15;;;2.50;;
8819;SDS011;4446;50.876;4.736;2023-02-28T11:23:56;2.63;;;2.40;;
8819;SDS011;4446;50.876;4.736;2023-02-28T11:26:41;4.82;;;2.28;;
8819;SDS011;4446;50.876;4.736;2023-02-28T11:29:12;3.08;;;2.53;;
8819;SDS011;4446;50.876;4.736;2023-02-28T11:31:49;3.40;;;2.50;;
8819;SDS011;4446;50.876;4.736;2023-02-28T11:34:29;3.28;;;2.58;;
8819;SDS011;4446;50.876;4.736;2023-02-28T11:36:58;3.03;;;2.25;;
8819;SDS011;4446;50.876;4.736;2023-02-28T11:39:30;3.42;;;2.42;;
8819;SDS011;4446;50.876;4.736;2023-02-28T11:42:07;3.63;;;2.30;;
8819;SDS011;4446;50.876;4.736;2023-02-28T11:44:49;3.03;;;2.45;;
8819;SDS011;4446;50.876;4.736;2023-02-28T11:47:25;3.80;;;2.67;;
8819;SDS011;4446;50.876;4.736;2023-02-28T11:50:02;2.75;;;2.45;;
8819;SDS011;4446;50.876;4.736;2023-02-28T11:52:45;2.97;;;2.60;;
8819;SDS011;4446;50.876;4.736;2023-02-28T11:55:19;3.42;;;2.72;;
8819;SDS011;4446;50.876;4.736;2023-02-28T11:58:00;3.50;;;2.95;;
8819;SDS011;4446;50.876;4.736;2023-02-28T12:00:52;4.45;;;2.70;;
8819;SDS011;4446;50.876;4.736;2023-02-28T12:03:32;2.40;;;2.20;;
8819;SDS011;4446;50.876;4.736;2023-02-28T12:06:09;2.97;;;2.50;;
8819;SDS011;4446;50.876;4.736;2023-02-28T12:08:56;3.88;;;2.42;;
8819;SDS011;4446;50.876;4.736;2023-02-28T12:11:34;4.50;;;2.70;;
8819;SDS011;4446;50.876;4.736;2023-02-28T12:17:25;4.43;;;2.80;;
8819;SDS011;4446;50.876;4.736;2023-02-28T12:20:05;3.78;;;2.85;;
8819;SDS011;4446;50.876;4.736;2023-02-28T12:22:42;3.67;;;2.60;;
8819;SDS011;4446;50.876;4.736;2023-02-28T12:25:24;4.97;;;2.70;;
8819;SDS011;4446;50.876;4.736;2023-02-28T12:28:14;3.70;;;2.60;;
8819;SDS011;4446;50.876;4.736;2023-02-28T12:30:46;2.60;;;2.38;;
8819;SDS011;4446;50.876;4.736;2023-02-28T12:33:20;4.22;;;3.40;;
8819;SDS011;4446;50.876;4.736;2023-02-28T12:35:53;4.55;;;3.67;;
8819;SDS011;4446;50.876;4.736;2023-02-28T12:38:22;18.80;;;10.05;;
8819;SDS011;4446;50.876;4.736;2023-02-28T12:40:56;10.88;;;5.72;;
8819;SDS011;4446;50.876;4.736;2023-02-28T12:43:27;7.35;;;5.10;;
8819;SDS011;4446;50.876;4.736;2023-02-28T12:45:59;7.50;;;3.55;;
8819;SDS011;4446;50.876;4.736;2023-02-28T12:48:30;5.22;;;3.53;;
8819;SDS011;4446;50.876;4.736;2023-02-28T12:51:03;3.30;;;2.60;;
8819;SDS011;4446;50.876;4.736;2023-02-28T12:53:35;5.78;;;2.88;;
8819;SDS011;4446;50.876;4.736;2023-02-28T12:56:18;4.40;;;2.60;;
8819;SDS011;4446;50.876;4.736;2023-02-28T12:58:56;2.85;;;2.60;;
8819;SDS011;4446;50.876;4.736;2023-02-28T13:01:33;3.28;;;2.60;;
8819;SDS011;4446;50.876;4.736;2023-02-28T13:04:32;2.97;;;2.67;;
8819;SDS011;4446;50.876;4.736;2023-02-28T13:07:23;3.00;;;2.60;;
8819;SDS011;4446;50.876;4.736;2023-02-28T13:10:19;4.10;;;2.40;;
8819;SDS011;4446;50.876;4.736;2023-02-28T13:12:51;3.10;;;2.70;;
8819;SDS011;4446;50.876;4.736;2023-02-28T13:15:21;3.17;;;2.80;;
8819;SDS011;4446;50.876;4.736;2023-02-28T13:17:51;4.30;;;2.70;;
8819;SDS011;4446;50.876;4.736;2023-02-28T13:20:20;3.15;;;2.70;;
8819;SDS011;4446;50.876;4.736;2023-02-28T13:22:49;3.30;;;2.72;;
8819;SDS011;4446;50.876;4.736;2023-02-28T13:31:34;3.95;;;2.70;;
8819;SDS011;4446;50.876;4.736;2023-02-28T13:34:40;4.13;;;2.60;;
8819;SDS011;4446;50.876;4.736;2023-02-28T13:37:32;2.90;;;2.50;;
8819;SDS011;4446;50.876;4.736;2023-02-28T13:42:55;4.22;;;2.65;;
8819;SDS011;4446;50.876;4.736;2023-02-28T13:45:24;3.72;;;2.50;;
8819;SDS011;4446;50.876;4.736;2023-02-28T13:47:54;3.90;;;2.90;;
8819;SDS011;4446;50.876;4.736;2023-02-28T13:50:27;3.08;;;2.75;;
8819;SDS011;4446;50.876;4.736;2023-02-28T13:53:00;3.90;;;2.90;;
8819;SDS011;4446;50.876;4.736;2023-02-28T13:55:52;3.00;;;2.70;;
8819;SDS011;4446;50.876;4.736;2023-02-28T13:58:27;4.03;;;3.40;;
8819;SDS011;4446;50.876;4.736;2023-02-28T14:01:09;3.80;;;2.90;;
8819;SDS011;4446;50.876;4.736;2023-02-28T14:03:53;4.82;;;3.30;;
8819;SDS011;4446;50.876;4.736;2023-02-28T14:06:32;3.63;;;2.95;;
8819;SDS011;4446;50.876;4.736;2023-02-28T14:09:01;6.00;;;3.20;;
8819;SDS011;4446;50.876;4.736;2023-02-28T14:11:33;3.92;;;3.22;;
8819;SDS011;4446;50.876;4.736;2023-02-28T14:14:01;6.38;;;3.30;;
8819;SDS011;4446;50.876;4.736;2023-02-28T14:16:35;5.72;;;3.15;;
8819;SDS011;4446;50.876;4.736;2023-02-28T14:19:11;5.10;;;3.22;;
8819;SDS011;4446;50.876;4.736;2023-02-28T14:21:43;5.53;;;3.00;;
8819;SDS011;4446;50.876;4.736;2023-02-28T14:24:29;4.00;;;3.60;;
8819;SDS011;4446;50.876;4.736;2023-02-28T14:27:11;3.35;;;2.88;;
8819;SDS011;4446;50.876;4.736;2023-02-28T14:30:12;3.70;;;3.08;;
8819;SDS011;4446;50.876;4.736;2023-02-28T14:33:12;3.55;;;3.20;;
8819;SDS011;4446;50.876;4.736;2023-02-28T14:35:53;3.45;;;3.15;;
8819;SDS011;4446;50.876;4.736;2023-02-28T14:38:30;5.13;;;3.60;;
8819;SDS011;4446;50.876;4.736;2023-02-28T14:41:03;5.30;;;3.30;;
8819;SDS011;4446;50.876;4.736;2023-02-28T14:43:46;4.45;;;3.40;;
8819;SDS011;4446;50.876;4.736;2023-02-28T14:46:15;3.38;;;3.08;;
8819;SDS011;4446;50.876;4.736;2023-02-28T14:48:44;4.03;;;3.55;;
8819;SDS011;4446;50.876;4.736;2023-02-28T14:51:17;4.85;;;3.33;;
8819;SDS011;4446;50.876;4.736;2023-02-28T14:53:48;3.42;;;3.10;;
8819;SDS011;4446;50.876;4.736;2023-02-28T14:56:21;3.95;;;3.10;;
8819;SDS011;4446;50.876;4.736;2023-02-28T14:58:52;9.38;;;3.28;;
8819;SDS011;4446;50.876;4.736;2023-02-28T15:01:21;3.42;;;3.10;;
8819;SDS011;4446;50.876;4.736;2023-02-28T15:03:56;4.28;;;3.33;;
8819;SDS011;4446;50.876;4.736;2023-02-28T15:06:27;3.58;;;3.22;;
8819;SDS011;4446;50.876;4.736;2023-02-28T15:09:08;4.43;;;2.97;;
8819;SDS011;4446;50.876;4.736;2023-02-28T15:11:36;6.57;;;3.45;;
8819;SDS011;4446;50.876;4.736;2023-02-28T15:14:04;3.35;;;3.05;;
8819;SDS011;4446;50.876;4.736;2023-02-28T15:16:32;5.03;;;3.60;;
8819;SDS011;4446;50.876;4.736;2023-02-28T15:19:04;3.50;;;3.20;;
8819;SDS011;4446;50.876;4.736;2023-02-28T15:21:35;3.90;;;3.40;;
8819;SDS011;4446;50.876;4.736;2023-02-28T15:24:06;4.28;;;3.13;;
8819;SDS011;4446;50.876;4.736;2023-02-28T15:26:38;3.55;;;3.25;;
8819;SDS011;4446;50.876;4.736;2023-02-28T15:29:08;3.70;;;3.30;;
8819;SDS011;4446;50.876;4.736;2023-02-28T15:31:41;5.00;;;3.30;;
8819;SDS011;4446;50.876;4.736;2023-02-28T15:34:15;3.60;;;3.30;;
8819;SDS011;4446;50.876;4.736;2023-02-28T15:36:48;3.63;;;3.28;;
8819;SDS011;4446;50.876;4.736;2023-02-28T15:39:18;4.10;;;3.70;;
8819;SDS011;4446;50.876;4.736;2023-02-28T15:41:47;3.13;;;2.83;;
8819;SDS011;4446;50.876;4.736;2023-02-28T15:44:15;4.13;;;3.10;;
8819;SDS011;4446;50.876;4.736;2023-02-28T15:46:45;4.85;;;3.55;;
8819;SDS011;4446;50.876;4.736;2023-02-28T15:49:21;4.47;;;3.70;;